Weather at Chicago Midway International Airport

Public forecast

Using degrees Fahrenheit for public forecast. Weather courtesy of forecast.io.

Current aviation weather report (METAR) for Chicago Midway International Airport

Retrieved 2020/10/27 00:00 UTC (38 minutes ago):

KMDW 270000Z 34006KT 10SM SCT023 BKN055 OVC090 03/M02 A3031 RMK AO2 T00331022

Aviation forecast (TAF) for Chicago Midway International Airport

Retrieved 2020-10-27 00:24 UTC (14 minutes ago):

TAF KMDW 262321Z 2700/2806 34007KT P6SM FEW025 BKN050 TEMPO 2700/2701 BKN025 FM270800 32005KT P6SM SCT020 BKN030 PROB30 2711/2715 4SM -RASN OVC020 FM271600 27009KT P6SM SCT070 FM280000 24006KT P6SM FEW250